Time;durP1;ratioP1;P1;durP2;ratioP2;P2;SDS_P1;SDS_P2;PMS_P1;PMS_P2;Temp;Humidity;BMP_temperature;BMP_pressure;BME280_temperature;BME280_humidity;BME280_pressure;Samples;Min_cycle;Max_cycle;Signal;HPM_P1;HPM_P2
2022/01/14 00:01:51;;;;;;;25.13;14.60;;;;;;;-1.67;67.77;100845.50;5074849;28;20816;-72
2022/01/14 00:04:18;;;;;;;22.57;14.50;;;;;;;-1.74;67.41;100825.94;5074112;28;20539;-72
2022/01/14 00:06:46;;;;;;;21.60;15.03;;;;;;;-1.85;68.12;100830.91;5074286;28;20446;-72
2022/01/14 00:09:14;;;;;;;20.10;13.07;;;;;;;-1.80;67.86;100821.09;5074195;28;20438;-72
2022/01/14 00:11:45;;;;;;;18.80;14.13;;;;;;;-1.83;67.65;100824.66;5074390;28;20434;-72
2022/01/14 00:14:22;;;;;;;29.03;14.80;;;;;;;-1.68;66.83;100836.00;5074346;28;20515;-72
2022/01/14 00:16:50;;;;;;;20.17;13.57;;;;;;;-1.69;67.00;100826.50;5074051;28;20433;-72
2022/01/14 00:19:17;;;;;;;21.30;13.37;;;;;;;-1.69;67.06;100829.09;5074513;28;20900;-72
2022/01/14 00:21:45;;;;;;;21.17;14.23;;;;;;;-1.68;67.37;100831.63;5074365;28;20442;-72
2022/01/14 00:24:24;;;;;;;24.47;14.30;;;;;;;-1.75;68.19;100839.88;5074180;28;20465;-72
2022/01/14 00:32:26;;;;;;;15.77;12.37;;;;;;;-1.67;68.35;100853.31;5073707;28;20916;-72
2022/01/14 00:34:52;;;;;;;20.57;14.03;;;;;;;-1.69;68.70;100844.75;5074991;28;20434;-73
2022/01/14 00:37:19;;;;;;;21.63;13.33;;;;;;;-1.61;68.84;100839.94;5073267;28;20438;-71
2022/01/14 00:39:47;;;;;;;20.43;13.00;;;;;;;-1.70;68.78;100832.66;5073178;28;20825;-71
2022/01/14 00:42:14;;;;;;;17.57;12.70;;;;;;;-1.69;68.96;100829.09;5073964;28;20436;-71
2022/01/14 00:44:41;;;;;;;18.97;12.23;;;;;;;-1.67;68.95;100835.91;5073316;28;20832;-72
2022/01/14 00:47:08;;;;;;;18.03;12.53;;;;;;;-1.70;69.32;100825.69;5072514;28;20434;-73
2022/01/14 00:49:35;;;;;;;15.67;12.03;;;;;;;-1.66;68.62;100832.41;5073498;28;20434;-73
2022/01/14 00:52:02;;;;;;;18.70;12.63;;;;;;;-1.70;68.94;100832.66;5073150;28;20436;-73
2022/01/14 00:54:29;;;;;;;19.07;12.50;;;;;;;-1.75;69.40;100832.06;5073262;28;20955;-73
2022/01/14 00:57:15;;;;;;;19.93;13.47;;;;;;;-1.72;69.22;100827.53;5074186;28;20575;-73
2022/01/14 00:59:42;;;;;;;15.30;11.30;;;;;;;-1.73;69.08;100827.59;5073070;28;20518;-73
2022/01/14 01:02:09;;;;;;;19.77;11.80;;;;;;;-1.74;68.87;100837.19;5073011;28;20445;-73
2022/01/14 01:04:39;;;;;;;18.97;13.33;;;;;;;-1.63;68.62;100834.81;5073449;28;20474;-72
2022/01/14 01:07:07;;;;;;;18.40;12.90;;;;;;;-1.71;68.08;100841.41;5073357;28;20449;-72
2022/01/14 01:09:36;;;;;;;18.20;12.73;;;;;;;-1.55;67.27;100839.59;5073292;28;20446;-72
2022/01/14 01:12:10;;;;;;;20.10;13.37;;;;;;;-1.68;67.53;100841.19;5072813;28;20438;-72
2022/01/14 01:14:43;;;;;;;19.17;13.33;;;;;;;-1.64;66.99;100837.50;5073033;28;20445;-72
2022/01/14 01:17:10;;;;;;;21.93;14.70;;;;;;;-1.64;67.21;100837.50;5074106;28;20473;-72
2022/01/14 01:19:37;;;;;;;18.53;13.33;;;;;;;-1.64;66.90;100827.06;5072418;28;20979;-72
2022/01/14 01:22:04;;;;;;;22.80;15.53;;;;;;;-1.63;66.34;100836.59;5073001;28;20846;-71
2022/01/14 01:24:31;;;;;;;20.73;14.03;;;;;;;-1.64;66.36;100833.13;5072696;28;20474;-72
2022/01/14 01:27:03;;;;;;;20.77;15.60;;;;;;;-1.54;65.52;100823.03;5072671;28;20442;-72
2022/01/14 01:29:46;;;;;;;18.90;13.80;;;;;;;-1.58;66.39;100811.97;5073066;28;20426;-73
2022/01/14 01:32:14;;;;;;;23.57;15.33;;;;;;;-1.55;66.89;100816.16;5072547;28;20430;-72
2022/01/14 01:34:41;;;;;;;24.93;15.30;;;;;;;-1.58;67.51;100803.31;5072776;28;20426;-72
2022/01/14 01:37:07;;;;;;;22.70;14.43;;;;;;;-1.62;67.81;100801.81;5072358;28;20446;-72
2022/01/14 01:39:35;;;;;;;22.63;14.67;;;;;;;-1.64;68.31;100795.81;5073346;28;20438;-72
2022/01/14 01:42:05;;;;;;;29.33;15.57;;;;;;;-1.63;68.03;100789.72;5072486;28;20438;-72
2022/01/14 01:44:36;;;;;;;21.70;14.60;;;;;;;-1.70;68.50;100776.22;5072134;28;20505;-72
2022/01/14 01:47:03;;;;;;;20.40;15.00;;;;;;;-1.61;68.18;100780.03;5073518;28;20499;-73
2022/01/14 01:49:33;;;;;;;23.80;14.47;;;;;;;-1.60;68.00;100782.56;5072321;28;20430;-72
2022/01/14 01:52:01;;;;;;;24.60;14.67;;;;;;;-1.69;69.42;100787.44;5072015;28;20875;-72
2022/01/14 01:54:29;;;;;;;24.57;14.67;;;;;;;-1.77;69.43;100780.06;5072522;28;20469;-71
2022/01/14 01:56:57;;;;;;;26.10;14.97;;;;;;;-1.65;69.65;100778.53;5071894;28;20941;-73
2022/01/14 01:59:25;;;;;;;23.23;15.70;;;;;;;-1.67;69.49;100769.97;5072189;28;20434;-73
2022/01/14 02:01:56;;;;;;;24.53;14.97;;;;;;;-1.67;70.32;100764.78;5072152;28;20499;-72
2022/01/14 02:04:22;;;;;;;23.77;14.50;;;;;;;-1.78;70.94;100762.78;5071885;28;20505;-72
2022/01/14 02:06:51;;;;;;;23.43;14.17;;;;;;;-1.80;70.39;100741.19;5071730;28;20438;-73
2022/01/14 02:09:18;;;;;;;25.00;15.27;;;;;;;-1.77;70.01;100742.78;5072094;28;20507;-72
2022/01/14 02:11:44;;;;;;;25.50;15.77;;;;;;;-1.79;70.18;100747.25;5072381;28;20500;-73
2022/01/14 02:14:26;;;;;;;22.27;14.57;;;;;;;-1.76;69.94;100740.09;5071909;28;20442;-73
2022/01/14 02:17:28;;;;;;;24.23;14.83;;;;;;;-1.67;69.39;100730.91;5072369;28;20430;-72
2022/01/14 02:22:50;;;;;;;20.30;14.03;;;;;;;-1.57;69.02;100724.22;5072604;28;20846;-73
2022/01/14 02:25:28;;;;;;;22.43;14.30;;;;;;;-1.46;68.94;100732.25;5071973;28;20461;-73
2022/01/14 02:27:55;;;;;;;22.20;15.00;;;;;;;-1.50;68.79;100725.56;5072548;28;20437;-72
2022/01/14 02:30:23;;;;;;;25.53;15.60;;;;;;;-1.48;69.12;100723.69;5071829;28;20438;-72
2022/01/14 02:32:50;;;;;;;20.70;13.87;;;;;;;-1.37;68.87;100711.72;5072576;28;20477;-73
2022/01/14 02:35:19;;;;;;;19.50;13.20;;;;;;;-1.20;68.85;100713.28;5072115;28;20450;-72
2022/01/14 02:37:46;;;;;;;25.60;14.27;;;;;;;-1.07;67.94;100707.25;5071959;28;20438;-72
2022/01/14 02:40:14;;;;;;;24.93;14.77;;;;;;;-1.02;67.79;100707.81;5071578;28;20434;-72
2022/01/14 02:42:40;;;;;;;20.97;14.73;;;;;;;-1.10;67.72;100717.03;5071322;28;20826;-72
2022/01/14 02:45:10;;;;;;;21.70;15.40;;;;;;;-1.21;67.39;100703.81;5071501;28;20477;-71
2022/01/14 02:47:37;;;;;;;23.03;14.80;;;;;;;-1.10;66.86;100706.63;5071472;28;20999;-72
2022/01/14 02:50:06;;;;;;;23.50;15.23;;;;;;;-1.02;66.98;100699.16;5072240;28;20438;-72
2022/01/14 02:52:43;;;;;;;23.50;15.73;;;;;;;-1.15;66.60;100695.59;5071753;28;20434;-72
2022/01/14 02:55:17;;;;;;;21.13;14.73;;;;;;;-1.28;66.74;100689.47;5072090;28;20512;-72
2022/01/14 02:57:45;;;;;;;21.77;13.63;;;;;;;-1.19;66.63;100683.69;5072111;28;20516;-73
2022/01/14 03:00:14;;;;;;;19.63;13.93;;;;;;;-1.27;66.66;100683.31;5072019;28;20507;-71
2022/01/14 03:02:43;;;;;;;22.80;13.70;;;;;;;-1.29;66.73;100680.81;5071717;28;20446;-72
2022/01/14 03:05:11;;;;;;;26.60;15.57;;;;;;;-1.41;67.38;100678.97;5071754;28;20473;-72
2022/01/14 03:07:40;;;;;;;21.03;14.70;;;;;;;-1.37;67.09;100669.19;5071557;28;20445;-72
2022/01/14 03:10:09;;;;;;;23.63;15.60;;;;;;;-1.38;67.74;100664.91;5072156;28;20434;-72
2022/01/14 03:12:36;;;;;;;26.70;15.47;;;;;;;-1.34;68.01;100653.38;5075321;28;20881;-72
2022/01/14 03:15:04;;;;;;;20.13;12.77;;;;;;;-1.46;68.19;100654.91;5075520;28;20499;-71
2022/01/14 03:17:30;;;;;;;16.57;12.53;;;;;;;-1.35;68.46;100646.50;5075109;28;20429;-71
2022/01/14 03:20:00;;;;;;;18.73;13.27;;;;;;;-1.34;68.36;100640.34;5074586;28;20537;-72
2022/01/14 03:22:30;;;;;;;17.43;12.23;;;;;;;-1.29;68.86;100646.09;5074805;28;20533;-72
2022/01/14 03:27:43;;;;;;;16.47;11.77;;;;;;;-1.35;69.24;100621.25;5075315;28;20491;-71
2022/01/14 03:30:12;;;;;;;17.10;11.77;;;;;;;-1.46;69.34;100617.63;5074707;28;20434;-72
2022/01/14 03:32:39;;;;;;;16.50;11.40;;;;;;;-1.42;69.07;100619.94;5074723;28;20474;-72
2022/01/14 03:35:07;;;;;;;15.30;11.67;;;;;;;-1.41;68.99;100610.38;5074868;28;20454;-72
2022/01/14 03:37:33;;;;;;;15.53;11.53;;;;;;;-1.39;68.39;100608.53;5074828;28;20503;-73
2022/01/14 03:40:02;;;;;;;12.80;10.73;;;;;;;-1.36;67.98;100605.72;5074964;28;20438;-72
2022/01/14 03:42:28;;;;;;;13.47;11.03;;;;;;;-1.29;67.64;100593.97;5074980;28;20425;-73
2022/01/14 03:44:55;;;;;;;17.30;10.37;;;;;;;-1.30;67.34;100587.91;5074280;28;20917;-73
2022/01/14 03:47:22;;;;;;;13.87;10.60;;;;;;;-1.18;65.63;100592.38;5074453;28;20438;-73
2022/01/14 03:49:48;;;;;;;15.83;11.43;;;;;;;-1.00;64.80;100588.63;5074534;28;20493;-70
2022/01/14 03:52:16;;;;;;;13.10;10.50;;;;;;;-0.96;64.39;100581.44;5074441;28;20427;-72
2022/01/14 03:54:43;;;;;;;14.43;10.57;;;;;;;-0.91;64.52;100584.59;5074728;28;20559;-72
2022/01/14 03:57:11;;;;;;;19.33;11.17;;;;;;;-0.85;63.96;100584.22;5074478;28;20788;-73
2022/01/14 03:59:37;;;;;;;15.83;10.90;;;;;;;-0.75;63.79;100585.28;5074768;28;20487;-73
2022/01/14 04:02:05;;;;;;;19.73;11.50;;;;;;;-0.71;63.75;100589.38;5074280;28;20438;-73
2022/01/14 04:04:32;;;;;;;17.27;10.63;;;;;;;-0.72;63.52;100590.31;5074144;28;20891;-73
2022/01/14 04:06:58;;;;;;;15.10;11.37;;;;;;;-0.75;64.08;100596.56;5074194;28;20500;-73
2022/01/14 04:09:25;;;;;;;14.70;11.10;;;;;;;-0.72;64.42;100601.59;5074508;28;20466;-73
2022/01/14 04:11:52;;;;;;;17.23;10.30;;;;;;;-0.76;64.26;100588.84;5074829;28;20499;-72
2022/01/14 04:17:04;;;;;;;14.73;11.03;;;;;;;-0.99;64.60;100550.34;5074025;28;20456;-73
2022/01/14 04:19:31;;;;;;;17.77;11.70;;;;;;;-0.83;64.87;100593.63;5074089;28;20496;-73
2022/01/14 04:21:58;;;;;;;17.80;11.27;;;;;;;-0.80;64.53;100595.19;5073579;28;21020;-72
2022/01/14 04:24:25;;;;;;;13.53;11.20;;;;;;;-0.81;64.35;100585.69;5073505;28;21001;-73
2022/01/14 04:26:51;;;;;;;19.90;12.93;;;;;;;-0.85;64.92;100589.44;5073917;28;20434;-73
2022/01/14 04:29:19;;;;;;;17.77;11.57;;;;;;;-0.83;64.93;100587.56;5073996;28;20446;-72
2022/01/14 04:31:46;;;;;;;19.17;11.57;;;;;;;-0.84;65.13;100576.31;5073581;28;20499;-74
2022/01/14 04:34:15;;;;;;;17.97;11.50;;;;;;;-0.77;65.75;100581.97;5073866;28;20505;-72
2022/01/14 04:36:42;;;;;;;21.77;12.43;;;;;;;-0.84;66.16;100570.25;5073315;28;20524;-73
2022/01/14 04:39:09;;;;;;;18.97;11.90;;;;;;;-0.79;65.95;100557.72;5073301;28;20438;-73
2022/01/14 04:41:36;;;;;;;16.53;11.20;;;;;;;-0.78;65.97;100549.81;5073338;28;20512;-73
2022/01/14 04:44:03;;;;;;;16.87;11.40;;;;;;;-0.82;66.33;100547.50;5073093;28;20534;-73
2022/01/14 04:47:00;;;;;;;17.33;11.07;;;;;;;-0.71;66.54;100547.66;5073193;28;20442;-73
2022/01/14 04:49:27;;;;;;;15.93;12.30;;;;;;;-0.77;66.05;100555.88;5073434;28;20433;-73
2022/01/14 04:51:55;;;;;;;19.30;11.73;;;;;;;-0.80;66.16;100556.06;5073532;28;20446;-73
2022/01/14 04:54:22;;;;;;;18.03;11.30;;;;;;;-0.82;66.65;100547.50;5073113;28;20853;-73
2022/01/14 04:56:49;;;;;;;17.07;11.67;;;;;;;-0.93;67.04;100542.97;5072860;28;20450;-73
2022/01/14 04:59:16;;;;;;;28.07;14.27;;;;;;;-0.86;67.41;100540.84;5072716;28;20819;-73
2022/01/14 05:01:44;;;;;;;22.33;11.73;;;;;;;-0.80;67.39;100548.25;5073062;28;20499;-73
2022/01/14 05:04:10;;;;;;;19.40;12.70;;;;;;;-0.81;67.00;100550.00;5072677;28;20527;-73
2022/01/14 05:06:38;;;;;;;30.33;17.23;;;;;;;-0.71;67.11;100558.06;5072481;28;20933;-73
2022/01/14 05:09:16;;;;;;;19.33;12.83;;;;;;;-0.69;67.07;100564.06;5072925;28;20842;-73
2022/01/14 05:11:51;;;;;;;19.00;11.90;;;;;;;-0.73;66.79;100559.97;5073193;28;20430;-73
2022/01/14 05:14:18;;;;;;;17.13;11.73;;;;;;;-0.80;67.10;100553.47;5073217;28;20521;-73
2022/01/14 05:16:46;;;;;;;19.17;12.23;;;;;;;-0.81;67.11;100560.44;5072887;28;20503;-73
2022/01/14 05:19:13;;;;;;;16.23;10.93;;;;;;;-0.72;66.18;100561.63;5072903;28;20886;-71
2022/01/14 05:21:40;;;;;;;15.73;10.63;;;;;;;-0.80;66.83;100572.56;5072848;28;20434;-72
2022/01/14 05:24:07;;;;;;;22.50;12.20;;;;;;;-0.70;66.66;100571.03;5072629;28;20517;-70
2022/01/14 05:26:33;;;;;;;15.27;11.17;;;;;;;-0.76;66.93;100574.03;5072495;28;20521;-71
2022/01/14 05:29:00;;;;;;;22.33;11.67;;;;;;;-0.77;66.43;100559.31;5072616;28;20503;-71
2022/01/14 05:31:43;;;;;;;23.27;12.73;;;;;;;-0.86;66.56;100546.03;5072422;28;20942;-74
2022/01/14 05:34:12;;;;;;;20.50;11.43;;;;;;;-0.77;66.70;100550.66;5069192;28;20477;-74
2022/01/14 05:36:38;;;;;;;16.90;11.07;;;;;;;-0.79;66.46;100545.53;5070404;28;20499;-72
2022/01/14 05:39:06;;;;;;;24.20;11.17;;;;;;;-0.91;66.73;100542.88;5070821;28;20867;-73
2022/01/14 05:41:33;;;;;;;18.80;12.20;;;;;;;-0.93;66.65;100536.94;5070973;28;20438;-72
2022/01/14 05:44:00;;;;;;;15.23;10.03;;;;;;;-0.91;66.93;100530.69;5070135;28;20479;-73
2022/01/14 05:46:26;;;;;;;16.50;11.50;;;;;;;-0.82;66.45;100532.69;5071478;28;21003;-73
2022/01/14 05:48:53;;;;;;;15.27;11.80;;;;;;;-0.84;66.62;100520.69;5071209;28;20811;-74
2022/01/14 05:51:21;;;;;;;17.67;11.30;;;;;;;-0.80;66.00;100514.34;5071842;28;20851;-69
2022/01/14 05:53:48;;;;;;;17.60;9.40;;;;;;;-0.80;66.04;100519.56;5073182;28;20438;-70
2022/01/14 05:56:15;;;;;;;18.40;9.50;;;;;;;-0.71;66.06;100505.91;5071609;28;20825;-71
2022/01/14 05:58:41;;;;;;;15.63;8.70;;;;;;;-0.60;65.53;100509.47;5072275;28;20442;-72
2022/01/14 06:01:08;;;;;;;16.73;8.93;;;;;;;-0.60;65.07;100517.31;5071768;28;20450;-73
2022/01/14 06:03:35;;;;;;;22.80;13.00;;;;;;;-0.57;65.51;100496.25;5072032;28;20434;-71
2022/01/14 06:06:01;;;;;;;13.23;11.57;;;;;;;-0.45;65.09;100492.81;5071612;28;20526;-73
2022/01/14 06:08:29;;;;;;;10.40;8.13;;;;;;;-0.51;65.77;100497.59;5071221;28;21034;-74
2022/01/14 06:10:56;;;;;;;11.80;8.83;;;;;;;-0.48;65.47;100490.41;5071600;28;20491;-73
2022/01/14 06:13:23;;;;;;;14.50;8.17;;;;;;;-0.27;64.56;100488.16;5071640;28;20492;-73
2022/01/14 06:15:49;;;;;;;11.37;8.60;;;;;;;-0.17;64.48;100482.19;5070339;28;20462;-72
2022/01/14 06:18:16;;;;;;;9.23;8.13;;;;;;;-0.18;64.53;100482.28;5070563;28;20511;-71
2022/01/14 06:20:43;;;;;;;9.93;8.90;;;;;;;-0.10;64.12;100485.22;5069371;28;20576;-71
2022/01/14 06:23:10;;;;;;;10.03;8.97;;;;;;;0.04;63.38;100487.72;5070579;28;21031;-72
2022/01/14 06:25:38;;;;;;;13.00;8.37;;;;;;;0.22;62.99;100478.63;5068795;28;20473;-73
2022/01/14 06:28:05;;;;;;;13.40;7.47;;;;;;;0.37;61.36;100474.94;5070955;28;20495;-72
2022/01/14 06:30:31;;;;;;;20.70;8.50;;;;;;;0.62;61.81;100459.19;5071278;28;20434;-74
2022/01/14 06:32:58;;;;;;;7.97;6.87;;;;;;;0.73;60.23;100454.00;5066425;28;20483;-77
2022/01/14 06:35:25;;;;;;;15.07;7.00;;;;;;;0.97;59.12;100465.31;5071891;28;20442;-73
2022/01/14 06:37:52;;;;;;;8.67;6.60;;;;;;;1.11;58.49;100467.75;5071764;28;20442;-76
2022/01/14 06:40:20;;;;;;;12.70;7.67;;;;;;;1.29;57.79;100458.53;5071667;28;20499;-74
2022/01/14 06:42:48;;;;;;;16.00;8.87;;;;;;;1.50;56.47;100459.56;5071945;28;20442;-73
2022/01/14 06:45:14;;;;;;;9.03;7.77;;;;;;;1.66;56.82;100459.22;5072208;28;20477;-76
2022/01/14 06:47:41;;;;;;;9.53;7.97;;;;;;;1.70;55.76;100458.03;5075576;28;20441;-73
2022/01/14 06:50:09;;;;;;;9.93;7.87;;;;;;;1.86;55.60;100456.75;5075951;28;20434;-73
2022/01/14 06:52:35;;;;;;;8.20;7.43;;;;;;;1.92;55.51;100451.03;5075853;28;20491;-72
2022/01/14 06:55:02;;;;;;;9.10;8.30;;;;;;;2.06;55.69;100453.44;5074934;28;20833;-73
2022/01/14 06:57:29;;;;;;;14.97;9.97;;;;;;;2.14;55.48;100451.06;5075713;28;20499;-73
2022/01/14 06:59:57;;;;;;;10.83;8.60;;;;;;;2.15;54.79;100452.72;5075331;28;20438;-73
2022/01/14 07:02:23;;;;;;;10.87;7.30;;;;;;;2.43;54.13;100456.63;5072379;28;20491;-73
2022/01/14 07:04:50;;;;;;;21.47;8.47;;;;;;;2.81;54.06;100463.13;5074989;28;20499;-73
2022/01/14 07:07:17;;;;;;;13.63;9.43;;;;;;;2.95;52.84;100469.88;5074963;28;20446;-73
2022/01/14 07:09:56;;;;;;;13.20;9.60;;;;;;;3.36;52.42;100473.44;5073401;28;20446;-73
2022/01/14 07:12:24;;;;;;;8.87;8.07;;;;;;;3.67;50.41;100480.41;5065878;28;20519;-72
2022/01/14 07:14:51;;;;;;;13.17;9.70;;;;;;;3.81;50.09;100474.00;5063802;28;20529;-74
2022/01/14 07:17:19;;;;;;;11.03;8.60;;;;;;;4.00;49.68;100492.53;5073043;28;20938;-74
2022/01/14 07:19:49;;;;;;;21.97;9.10;;;;;;;3.90;50.11;100486.34;5073105;28;20434;-74
2022/01/14 07:22:16;;;;;;;12.17;8.37;;;;;;;4.05;49.36;100482.44;5073393;28;20503;-74
2022/01/14 07:24:42;;;;;;;11.20;8.20;;;;;;;3.78;49.53;100477.72;5074789;28;21006;-74
2022/01/14 07:27:09;;;;;;;10.93;8.87;;;;;;;3.76;50.54;100469.13;5075250;28;20578;-75
2022/01/14 07:29:36;;;;;;;9.97;8.97;;;;;;;3.81;50.02;100461.72;5074824;28;20434;-75
2022/01/14 07:32:03;;;;;;;16.97;9.67;;;;;;;3.61;49.62;100469.59;5073445;28;20450;-73
2022/01/14 07:34:31;;;;;;;14.27;9.97;;;;;;;3.55;49.34;100454.34;5054829;28;20442;-74
2022/01/14 07:36:58;;;;;;;13.50;9.73;;;;;;;3.71;49.78;100444.19;5055059;28;20434;-73
2022/01/14 07:39:26;;;;;;;17.77;10.70;;;;;;;3.80;50.50;100435.56;5054959;28;20442;-74
2022/01/14 07:41:53;;;;;;;14.77;11.13;;;;;;;4.02;49.99;100430.97;5072760;28;21023;-74
2022/01/14 07:44:21;;;;;;;16.45;11.63;;;;;;;4.22;50.09;100430.09;5073927;28;20936;-73
2022/01/14 07:46:48;;;;;;;11.63;10.17;;;;;;;4.46;49.03;100425.28;5074830;28;20274;-74
2022/01/14 07:49:16;;;;;;;16.77;10.67;;;;;;;4.52;49.70;100423.94;5074778;28;20249;-72
2022/01/14 07:51:44;;;;;;;10.93;7.90;;;;;;;4.45;49.52;100420.19;5074461;28;20949;-72
2022/01/14 07:54:11;;;;;;;15.07;10.73;;;;;;;4.68;48.94;100425.09;5074211;28;20438;-72
2022/01/14 07:56:39;;;;;;;11.90;9.27;;;;;;;4.99;48.13;100416.09;5073654;28;20946;-73
2022/01/14 07:59:07;;;;;;;15.17;8.57;;;;;;;5.43;47.76;100404.13;5074721;28;20192;-74
2022/01/14 08:01:37;;;;;;;12.10;8.60;;;;;;;5.68;46.67;100396.47;5074248;28;20192;-73
2022/01/14 08:04:05;;;;;;;13.97;9.33;;;;;;;5.62;47.06;100389.16;5074148;28;20188;-73
2022/01/14 08:06:34;;;;;;;31.00;10.60;;;;;;;5.52;47.31;100393.59;5074452;28;20215;-73
2022/01/14 08:09:02;;;;;;;10.07;8.70;;;;;;;5.72;47.59;100389.13;5074370;28;20244;-73
2022/01/14 08:11:28;;;;;;;7.57;6.80;;;;;;;5.68;47.08;100388.56;5074319;28;20199;-73
2022/01/14 08:13:55;;;;;;;9.00;8.20;;;;;;;5.53;47.22;100382.09;5073738;28;20187;-73
2022/01/14 08:16:22;;;;;;;8.20;7.33;;;;;;;5.33;47.44;100367.31;5074049;28;20196;-74
2022/01/14 08:18:49;;;;;;;10.00;8.23;;;;;;;5.39;47.44;100360.59;5073743;28;20227;-73
2022/01/14 08:21:16;;;;;;;12.10;8.73;;;;;;;5.49;47.46;100359.66;5073607;28;20192;-73
2022/01/14 08:23:42;;;;;;;34.93;9.17;;;;;;;5.74;47.32;100361.66;5074082;28;20273;-73
2022/01/14 08:26:10;;;;;;;15.30;8.30;;;;;;;5.96;46.86;100364.91;5074067;28;20215;-73
2022/01/14 08:28:37;;;;;;;14.37;8.33;;;;;;;5.94;46.53;100364.22;5073834;28;20200;-73
2022/01/14 08:31:04;;;;;;;12.97;9.90;;;;;;;5.79;47.42;100348.00;5073834;28;20663;-73
2022/01/14 08:33:31;;;;;;;56.40;12.93;;;;;;;5.66;47.27;100342.25;5073530;28;20232;-73
2022/01/14 08:35:57;;;;;;;13.40;10.10;;;;;;;5.83;47.73;100338.06;5074516;28;20277;-73
2022/01/14 08:38:24;;;;;;;18.90;9.83;;;;;;;5.99;47.96;100339.06;5073375;28;20253;-73
2022/01/14 08:40:51;;;;;;;10.50;9.47;;;;;;;6.11;47.88;100347.63;5073629;28;20275;-73
2022/01/14 08:43:20;;;;;;;12.07;9.37;;;;;;;6.04;47.65;100351.84;5073616;28;20191;-73
2022/01/14 08:45:47;;;;;;;13.87;10.23;;;;;;;6.22;47.43;100343.00;5073562;28;20230;-73
2022/01/14 08:48:14;;;;;;;19.53;10.03;;;;;;;6.09;47.69;100345.16;5073267;28;20192;-74
2022/01/14 08:50:41;;;;;;;13.73;9.83;;;;;;;6.18;48.65;100331.06;5073552;28;20191;-74
2022/01/14 08:53:13;;;;;;;20.43;10.30;;;;;;;6.28;48.12;100329.19;5073540;28;20187;-74
2022/01/14 08:55:40;;;;;;;14.03;10.30;;;;;;;6.28;47.51;100328.38;5073588;28;20195;-74
2022/01/14 08:58:07;;;;;;;12.93;10.17;;;;;;;5.94;48.91;100329.94;5073489;28;20233;-74
2022/01/14 09:00:36;;;;;;;13.53;9.83;;;;;;;5.73;50.05;100323.06;5073366;28;20188;-73
2022/01/14 09:03:04;;;;;;;15.80;11.67;;;;;;;6.00;50.07;100311.72;5073415;28;20192;-73
2022/01/14 09:05:31;;;;;;;23.10;14.40;;;;;;;6.10;50.38;100309.03;5073158;28;20310;-73
2022/01/14 09:07:59;;;;;;;23.47;11.60;;;;;;;6.03;50.41;100297.41;5072386;28;20196;-73
2022/01/14 09:10:26;;;;;;;19.23;10.50;;;;;;;6.00;50.37;100293.25;5072782;28;20249;-74
2022/01/14 09:12:53;;;;;;;12.77;11.07;;;;;;;6.06;50.51;100286.56;5072827;28;20725;-74
2022/01/14 09:15:20;;;;;;;18.93;12.17;;;;;;;6.03;50.73;100285.06;5073067;28;20258;-73
2022/01/14 09:17:48;;;;;;;17.50;13.53;;;;;;;6.23;50.81;100267.31;5073092;28;20200;-74
2022/01/14 09:20:15;;;;;;;18.83;12.77;;;;;;;6.20;51.04;100246.53;5072648;28;20736;-74
2022/01/14 09:22:47;;;;;;;17.53;12.90;;;;;;;6.26;52.18;100245.91;5072971;28;20253;-74
2022/01/14 09:25:15;;;;;;;12.10;10.53;;;;;;;6.45;51.25;100243.13;5072513;28;20206;-74
2022/01/14 09:27:42;;;;;;;17.20;10.80;;;;;;;6.16;52.87;100239.88;5072938;28;20259;-74
2022/01/14 09:30:10;;;;;;;16.63;11.43;;;;;;;6.36;52.37;100230.84;5072496;28;20226;-74
2022/01/14 09:32:37;;;;;;;31.87;13.00;;;;;;;6.16;52.60;100202.97;5072619;28;20224;-74
2022/01/14 09:35:08;;;;;;;16.50;11.93;;;;;;;6.35;53.97;100208.06;5072422;28;20199;-74
2022/01/14 09:37:35;;;;;;;14.17;10.37;;;;;;;6.62;54.21;100211.41;5072547;28;20667;-74
2022/01/14 09:40:02;;;;;;;20.97;11.30;;;;;;;6.38;53.89;100197.22;5072133;28;20199;-74
2022/01/14 09:42:30;;;;;;;12.87;10.50;;;;;;;6.46;53.58;100194.66;5072416;28;20732;-75
2022/01/14 09:44:57;;;;;;;15.00;11.33;;;;;;;6.53;52.86;100193.88;5072541;28;20278;-75
2022/01/14 09:47:24;;;;;;;15.90;10.27;;;;;;;6.69;51.89;100201.09;5072665;28;20221;-74
2022/01/14 09:49:51;;;;;;;14.30;9.07;;;;;;;7.01;51.68;100188.09;5072304;28;20256;-75
2022/01/14 09:52:19;;;;;;;14.63;10.47;;;;;;;6.81;51.65;100189.31;5072170;28;20196;-74
2022/01/14 09:54:47;;;;;;;17.47;11.70;;;;;;;6.83;51.89;100179.41;5072329;28;20241;-75
2022/01/14 09:57:15;;;;;;;27.60;12.30;;;;;;;6.85;52.15;100175.63;5072415;28;20200;-75
2022/01/14 09:59:42;;;;;;;14.10;11.13;;;;;;;7.05;52.25;100173.59;5072235;28;20199;-74
2022/01/14 10:02:09;;;;;;;15.27;11.90;;;;;;;7.05;52.81;100168.31;5072135;28;20192;-75
2022/01/14 10:04:38;;;;;;;10.77;9.67;;;;;;;6.96;51.82;100156.03;5071649;28;20652;-75
2022/01/14 10:07:05;;;;;;;16.00;11.83;;;;;;;6.94;52.76;100136.91;5071813;28;20215;-74
2022/01/14 10:09:36;;;;;;;16.57;12.60;;;;;;;6.98;52.87;100131.13;5071929;28;20200;-75
2022/01/14 10:12:06;;;;;;;16.77;11.43;;;;;;;7.52;52.03;100135.97;5072544;28;20215;-76
2022/01/14 10:14:34;;;;;;;21.70;11.43;;;;;;;7.70;51.28;100125.28;5072471;28;20188;-75
2022/01/14 10:17:04;;;;;;;14.63;10.20;;;;;;;8.04;52.17;100123.38;5071446;28;20265;-77
2022/01/14 10:19:34;;;;;;;20.43;11.03;;;;;;;8.27;50.70;100121.72;5071934;28;20218;-78
2022/01/14 10:22:01;;;;;;;14.67;11.17;;;;;;;8.19;51.19;100117.25;5072044;28;20252;-78
2022/01/14 10:24:31;;;;;;;21.13;12.20;;;;;;;7.97;52.33;100101.19;5072027;28;20196;-76
2022/01/14 10:27:01;;;;;;;16.17;11.93;;;;;;;8.28;52.07;100115.44;5070312;28;20307;-74
2022/01/14 10:29:31;;;;;;;19.80;9.80;;;;;;;8.39;51.74;100101.88;5071319;28;20287;-73
2022/01/14 10:32:00;;;;;;;18.67;11.23;;;;;;;8.21;53.11;100090.66;5071609;28;20179;-76
2022/01/14 10:34:27;;;;;;;16.30;11.67;;;;;;;7.95;54.53;100097.88;5071912;28;20233;-77
2022/01/14 10:37:10;;;;;;;14.77;10.23;;;;;;;8.00;55.22;100092.94;5071294;28;20196;-76
2022/01/14 10:39:44;;;;;;;12.40;10.67;;;;;;;7.85;57.07;100084.00;5071666;28;20180;-72
2022/01/14 10:42:25;;;;;;;19.20;10.63;;;;;;;7.74;56.46;100068.44;5060480;28;20184;-75
2022/01/14 10:44:53;;;;;;;14.13;9.67;;;;;;;7.74;57.67;100050.75;5070894;28;20187;-74
2022/01/14 10:47:22;;;;;;;18.50;8.47;;;;;;;7.85;58.01;100045.16;5071639;28;20224;-72
2022/01/14 10:49:50;;;;;;;9.53;7.07;;;;;;;8.22;57.17;100047.31;5071787;28;20189;-73
2022/01/14 10:52:20;;;;;;;12.83;7.53;;;;;;;8.20;57.86;100043.97;5068777;28;20191;-74
2022/01/14 10:54:49;;;;;;;8.87;8.07;;;;;;;8.00;58.66;100043.47;5071454;28;20192;-73
2022/01/14 10:57:18;;;;;;;14.70;10.13;;;;;;;8.07;58.79;100036.53;5071094;28;20191;-70
2022/01/14 10:59:47;;;;;;;18.13;10.80;;;;;;;8.13;58.68;100027.13;5071703;28;20253;-71
2022/01/14 11:02:34;;;;;;;12.83;9.17;;;;;;;8.17;59.47;100023.16;5070724;28;20245;-72
2022/01/14 11:05:07;;;;;;;12.13;8.23;;;;;;;8.51;57.75;100013.16;5051164;28;20610;-71
2022/01/14 11:07:33;;;;;;;12.80;7.37;;;;;;;8.36;58.28;100009.56;5051950;28;20220;-76
2022/01/14 11:10:01;;;;;;;15.13;8.83;;;;;;;8.25;58.86;100002.00;5051516;28;20192;-70
2022/01/14 11:12:29;;;;;;;10.63;9.50;;;;;;;7.96;60.11;100004.31;5062753;28;20205;-70
2022/01/14 11:14:57;;;;;;;15.43;9.50;;;;;;;8.25;59.34;99999.34;5071516;28;20191;-72
2022/01/14 11:17:24;;;;;;;8.80;7.80;;;;;;;8.38;59.98;99992.50;5071040;28;20200;-71
2022/01/14 11:19:51;;;;;;;16.33;8.77;;;;;;;8.52;57.73;99991.81;5070031;28;20718;-72
2022/01/14 11:25:02;;;;;;;11.73;8.27;;;;;;;8.77;57.31;99979.28;5067241;28;20290;-75
2022/01/14 11:27:36;;;;;;;9.23;8.43;;;;;;;8.52;57.60;99967.16;5066650;28;20314;-73
2022/01/14 11:30:12;;;;;;;28.13;9.70;;;;;;;8.43;57.70;99960.25;5066287;28;20183;-71
2022/01/14 11:32:53;;;;;;;13.17;8.87;;;;;;;8.42;58.59;99953.31;5068243;28;20699;-72
2022/01/14 11:35:24;;;;;;;15.67;8.17;;;;;;;8.15;59.25;99957.16;5073925;28;20251;-72
2022/01/14 11:37:51;;;;;;;9.83;7.93;;;;;;;8.22;59.30;99957.34;5070893;28;20253;-72
2022/01/14 11:40:18;;;;;;;14.60;10.10;;;;;;;8.39;59.11;99943.06;5072758;28;20196;-72